createdAt,value
2023-05-14T00:00:01.402Z,0
2023-05-14T00:01:01.661Z,0
2023-05-14T00:02:01.930Z,0
2023-05-14T00:03:02.315Z,0
2023-05-14T00:04:03.023Z,0
2023-05-14T00:05:03.453Z,0
2023-05-14T00:06:03.597Z,0
2023-05-14T00:07:03.778Z,0
2023-05-14T00:08:03.936Z,0
2023-05-14T00:09:04.105Z,0
2023-05-14T00:10:04.294Z,0
2023-05-14T00:11:04.480Z,0
2023-05-14T00:12:04.640Z,0
2023-05-14T00:13:04.823Z,0
2023-05-14T00:14:05.000Z,0
2023-05-14T00:15:05.200Z,0
2023-05-14T00:16:05.396Z,0
2023-05-14T00:17:05.698Z,0
2023-05-14T00:18:05.866Z,0
2023-05-14T00:19:06.258Z,0
2023-05-14T00:20:06.692Z,0
2023-05-14T00:21:06.852Z,0
2023-05-14T00:22:07.018Z,0
2023-05-14T00:23:07.207Z,0
2023-05-14T00:24:07.391Z,0
2023-05-14T00:25:07.573Z,0
2023-05-14T00:26:07.754Z,0
2023-05-14T00:27:08.020Z,0
2023-05-14T00:28:08.192Z,0
2023-05-14T00:29:08.373Z,0
2023-05-14T00:30:08.546Z,0
2023-05-14T00:31:08.747Z,0
2023-05-14T00:32:09.058Z,0
2023-05-14T00:33:09.250Z,0
2023-05-14T00:34:09.612Z,0
2023-05-14T00:35:09.814Z,0
2023-05-14T00:36:10.003Z,0
2023-05-14T00:37:10.166Z,0
2023-05-14T00:38:10.328Z,0
2023-05-14T00:39:10.485Z,0
2023-05-14T00:40:10.625Z,0
2023-05-14T00:41:10.787Z,0
2023-05-14T00:42:10.955Z,0
2023-05-14T00:43:11.114Z,0
2023-05-14T00:44:11.273Z,0
2023-05-14T00:45:11.428Z,0
2023-05-14T00:46:11.606Z,0
2023-05-14T00:47:11.849Z,0
2023-05-14T00:48:12.054Z,0
2023-05-14T00:49:12.247Z,0
2023-05-14T00:50:12.430Z,0
2023-05-14T00:51:12.585Z,0
2023-05-14T00:52:12.739Z,0
2023-05-14T00:53:12.888Z,0
2023-05-14T00:54:13.045Z,0
2023-05-14T00:55:13.234Z,0
2023-05-14T00:56:13.402Z,0
2023-05-14T00:57:13.572Z,0
2023-05-14T00:58:13.745Z,0
2023-05-14T00:59:13.903Z,0
2023-05-14T01:00:14.065Z,0
2023-05-14T01:01:14.257Z,0
2023-05-14T01:02:14.495Z,0
2023-05-14T01:03:14.731Z,0
2023-05-14T01:04:15.241Z,0
2023-05-14T01:05:15.401Z,0
2023-05-14T01:06:15.582Z,0
2023-05-14T01:07:15.760Z,0
2023-05-14T01:08:15.920Z,0
2023-05-14T01:09:16.114Z,0
2023-05-14T01:10:16.269Z,0
2023-05-14T01:11:16.439Z,0
2023-05-14T01:12:16.607Z,0
2023-05-14T01:13:16.757Z,0
2023-05-14T01:14:16.941Z,0
2023-05-14T01:15:17.115Z,0
2023-05-14T01:16:17.325Z,0
2023-05-14T01:17:17.614Z,0
2023-05-14T01:18:17.769Z,0
2023-05-14T01:19:17.970Z,0
2023-05-14T01:20:18.307Z,0
2023-05-14T01:21:18.469Z,0
2023-05-14T01:22:18.628Z,0
2023-05-14T01:23:18.793Z,0
2023-05-14T01:24:18.961Z,0
2023-05-14T01:25:19.152Z,0
2023-05-14T01:26:19.298Z,0
2023-05-14T01:27:19.471Z,0
2023-05-14T01:28:19.643Z,0
2023-05-14T01:29:19.828Z,0
2023-05-14T01:30:20.036Z,0
2023-05-14T01:31:20.237Z,0
2023-05-14T01:32:20.469Z,0
2023-05-14T01:33:20.756Z,0
2023-05-14T01:34:20.927Z,0
2023-05-14T01:35:21.121Z,0
2023-05-14T01:36:21.284Z,0
2023-05-14T01:37:21.510Z,0
2023-05-14T01:38:21.689Z,0
2023-05-14T01:39:21.865Z,0
2023-05-14T01:40:22.133Z,0
2023-05-14T01:41:23.048Z,0
2023-05-14T01:42:23.242Z,0
2023-05-14T01:43:23.488Z,0
2023-05-14T01:44:23.815Z,0
2023-05-14T01:45:23.986Z,0
2023-05-14T01:46:24.227Z,0
2023-05-14T01:47:24.567Z,0
2023-05-14T01:48:24.863Z,0
2023-05-14T01:49:25.053Z,0
2023-05-14T01:50:25.393Z,0
2023-05-14T01:51:26.133Z,0
2023-05-14T01:52:26.341Z,0
2023-05-14T01:53:26.495Z,0
2023-05-14T01:54:26.648Z,0
2023-05-14T01:55:26.813Z,0
2023-05-14T01:56:27.081Z,0
2023-05-14T01:57:27.257Z,0
2023-05-14T01:58:27.446Z,0
2023-05-14T01:59:27.605Z,0
2023-05-14T02:00:27.770Z,0
2023-05-14T02:01:27.966Z,0
2023-05-14T02:02:28.266Z,0
2023-05-14T02:03:28.499Z,0
2023-05-14T02:04:28.773Z,0
2023-05-14T02:05:28.937Z,0
2023-05-14T02:06:29.122Z,0
2023-05-14T02:07:29.320Z,0
2023-05-14T02:08:29.488Z,0
2023-05-14T02:09:29.649Z,0
2023-05-14T02:10:29.880Z,0
2023-05-14T02:11:30.243Z,0
2023-05-14T02:12:30.394Z,0
2023-05-14T02:13:30.559Z,0
2023-05-14T02:14:30.726Z,0
2023-05-14T02:15:30.883Z,0
2023-05-14T02:16:31.188Z,0
2023-05-14T02:17:31.778Z,0
2023-05-14T02:18:32.086Z,0
2023-05-14T02:19:32.353Z,0
2023-05-14T02:20:32.531Z,0
2023-05-14T02:21:32.703Z,0
2023-05-14T02:22:32.868Z,0
2023-05-14T02:23:40.823Z,0
2023-05-14T02:24:42.468Z,0
2023-05-14T02:25:42.651Z,0
2023-05-14T02:26:42.806Z,0
2023-05-14T02:27:43.011Z,0
2023-05-14T02:28:44.918Z,0
2023-05-14T02:29:45.084Z,0
2023-05-14T02:30:45.279Z,0
2023-05-14T02:31:45.511Z,0
2023-05-14T02:32:45.837Z,0
2023-05-14T02:33:46.376Z,0
2023-05-14T02:34:46.560Z,0
2023-05-14T02:35:46.731Z,0
2023-05-14T02:36:46.909Z,0
2023-05-14T02:37:47.084Z,0
2023-05-14T02:38:47.239Z,0
2023-05-14T02:39:47.379Z,0
2023-05-14T02:40:47.539Z,0
2023-05-14T02:41:47.695Z,0
2023-05-14T02:42:47.899Z,0
2023-05-14T02:43:48.068Z,0
2023-05-14T02:44:48.222Z,0
2023-05-14T02:45:48.385Z,0
2023-05-14T02:46:48.577Z,0
2023-05-14T02:47:48.846Z,0
2023-05-14T02:48:49.196Z,0
2023-05-14T02:49:49.360Z,0
2023-05-14T02:50:49.515Z,0
2023-05-14T02:51:49.683Z,0
2023-05-14T02:52:49.837Z,0
2023-05-14T02:53:50.017Z,0
2023-05-14T02:54:50.174Z,0
2023-05-14T02:55:50.326Z,0
2023-05-14T02:56:50.486Z,0
2023-05-14T02:57:50.655Z,0
2023-05-14T02:58:50.809Z,0
2023-05-14T02:59:50.999Z,0
2023-05-14T03:00:52.575Z,0
2023-05-14T03:01:54.064Z,0
2023-05-14T03:02:55.609Z,0
2023-05-14T03:03:57.208Z,0
2023-05-14T03:04:57.366Z,0
2023-05-14T03:05:57.540Z,0
2023-05-14T03:06:57.717Z,0
2023-05-14T03:07:57.879Z,0
2023-05-14T03:08:58.064Z,0
2023-05-14T03:09:58.252Z,0
2023-05-14T03:10:58.420Z,0
2023-05-14T03:11:58.576Z,0
2023-05-14T03:12:58.753Z,0
2023-05-14T03:13:58.909Z,0
2023-05-14T03:14:59.064Z,0
2023-05-14T03:15:59.241Z,0
2023-05-14T03:16:59.535Z,0
2023-05-14T03:17:59.951Z,0
2023-05-14T03:19:00.312Z,0
2023-05-14T03:20:00.760Z,0
2023-05-14T03:21:00.933Z,0
2023-05-14T03:22:01.129Z,0
2023-05-14T03:23:01.298Z,0
2023-05-14T03:24:01.469Z,0
2023-05-14T03:25:01.674Z,0
2023-05-14T03:26:01.859Z,0
2023-05-14T03:27:02.050Z,0
2023-05-14T03:28:02.205Z,1
2023-05-14T03:29:02.380Z,2
2023-05-14T03:30:02.561Z,3
2023-05-14T03:31:02.804Z,4
2023-05-14T03:32:03.127Z,6
2023-05-14T03:33:03.402Z,8
2023-05-14T03:34:03.745Z,8
2023-05-14T03:35:03.918Z,11
2023-05-14T03:36:04.084Z,11
2023-05-14T03:37:04.234Z,15
2023-05-14T03:38:04.446Z,15
2023-05-14T03:39:04.651Z,20
2023-05-14T03:40:04.830Z,20
2023-05-14T03:41:05.006Z,26
2023-05-14T03:42:05.173Z,26
2023-05-14T03:43:05.356Z,34
2023-05-14T03:44:05.531Z,34
2023-05-14T03:45:05.818Z,34
2023-05-14T03:46:06.003Z,45
2023-05-14T03:47:06.174Z,45
2023-05-14T03:48:06.440Z,45
2023-05-14T03:49:07.037Z,59
2023-05-14T03:50:07.472Z,59
2023-05-14T03:51:07.667Z,59
2023-05-14T03:52:07.862Z,59
2023-05-14T03:53:08.040Z,77
2023-05-14T03:54:08.210Z,77
2023-05-14T03:55:08.462Z,77
2023-05-14T03:56:08.620Z,77
2023-05-14T03:57:08.797Z,77
2023-05-14T03:58:08.961Z,110
2023-05-14T03:59:09.134Z,110
2023-05-14T04:00:09.311Z,110
2023-05-14T04:01:09.491Z,150
2023-05-14T04:02:09.669Z,150
2023-05-14T04:03:10.002Z,150
2023-05-14T04:04:10.629Z,150
2023-05-14T04:05:11.046Z,200
2023-05-14T04:06:11.476Z,200
2023-05-14T04:07:11.660Z,200
2023-05-14T04:08:11.848Z,260
2023-05-14T04:09:12.017Z,260
2023-05-14T04:10:12.175Z,260
2023-05-14T04:11:12.315Z,260
2023-05-14T04:12:12.503Z,260
2023-05-14T04:13:12.665Z,339.84
2023-05-14T04:14:12.821Z,339.84
2023-05-14T04:15:13.029Z,339.84
2023-05-14T04:16:13.263Z,339.84
2023-05-14T04:17:13.604Z,339.84
2023-05-14T04:18:14.031Z,339.84
2023-05-14T04:19:14.445Z,339.84
2023-05-14T04:20:14.917Z,339.84
2023-05-14T04:21:15.078Z,339.84
2023-05-14T04:22:15.242Z,449.92
2023-05-14T04:23:15.412Z,449.92
2023-05-14T04:24:15.561Z,449.92
2023-05-14T04:25:15.721Z,449.92
2023-05-14T04:26:15.887Z,449.92
2023-05-14T04:27:16.056Z,449.92
2023-05-14T04:28:16.223Z,449.92
2023-05-14T04:29:16.382Z,449.92
2023-05-14T04:30:16.570Z,589.76
2023-05-14T04:31:16.791Z,589.76
2023-05-14T04:32:17.155Z,589.76
2023-05-14T04:33:17.321Z,589.76
2023-05-14T04:34:17.468Z,589.76
2023-05-14T04:35:17.621Z,589.76
2023-05-14T04:36:17.788Z,589.76
2023-05-14T04:37:17.964Z,589.76
2023-05-14T04:38:18.117Z,589.76
2023-05-14T04:39:18.266Z,589.76
2023-05-14T04:40:18.428Z,589.76
2023-05-14T04:41:18.588Z,769.92
2023-05-14T04:42:18.747Z,769.92
2023-05-14T04:43:18.914Z,769.92
2023-05-14T04:44:19.071Z,769.92
2023-05-14T04:45:19.269Z,769.92
2023-05-14T04:46:19.474Z,769.92
2023-05-14T04:47:19.782Z,769.92
2023-05-14T04:48:20.050Z,769.92
2023-05-14T04:49:20.230Z,769.92
2023-05-14T04:50:20.381Z,769.92
2023-05-14T04:51:20.628Z,1019.52
2023-05-14T04:52:20.789Z,1019.52
2023-05-14T04:53:20.953Z,1019.52
2023-05-14T04:54:21.126Z,1019.52
2023-05-14T04:55:21.416Z,1019.52
2023-05-14T04:56:21.694Z,1019.52
2023-05-14T04:57:21.865Z,1019.52
2023-05-14T04:58:22.059Z,1019.52
2023-05-14T04:59:22.228Z,1019.52
2023-05-14T05:00:22.728Z,1019.52
2023-05-14T05:01:23.823Z,1019.52
2023-05-14T05:02:24.146Z,1019.52
2023-05-14T05:03:24.595Z,1019.52
2023-05-14T05:04:25.126Z,1019.52
2023-05-14T05:05:25.285Z,1338.88
2023-05-14T05:06:25.470Z,1338.88
2023-05-14T05:07:25.633Z,1338.88
2023-05-14T05:08:25.816Z,1338.88
2023-05-14T05:09:25.981Z,1338.88
2023-05-14T05:10:26.411Z,1338.88
2023-05-14T05:11:27.074Z,1338.88
2023-05-14T05:12:27.263Z,1760
2023-05-14T05:13:27.418Z,1760
2023-05-14T05:14:27.577Z,1760
2023-05-14T05:15:27.747Z,1760
2023-05-14T05:16:27.958Z,1760
2023-05-14T05:17:28.547Z,1760
2023-05-14T05:18:28.816Z,1760
2023-05-14T05:19:36.140Z,1760
2023-05-14T05:20:44.871Z,2179.84
2023-05-14T05:21:45.020Z,2179.84
2023-05-14T05:22:45.197Z,2179.84
2023-05-14T05:23:45.354Z,2298.88
2023-05-14T05:24:45.517Z,2298.88
2023-05-14T05:25:46.065Z,2298.88
2023-05-14T05:26:46.232Z,2298.88
2023-05-14T05:27:46.398Z,2298.88
2023-05-14T05:28:46.552Z,2298.88
2023-05-14T05:29:46.703Z,2298.88
2023-05-14T05:30:46.862Z,2298.88
2023-05-14T05:31:47.051Z,2298.88
2023-05-14T05:32:47.461Z,2298.88
2023-05-14T05:33:47.768Z,2298.88
2023-05-14T05:34:48.008Z,2298.88
2023-05-14T05:35:48.158Z,2298.88
2023-05-14T05:36:48.387Z,2298.88
2023-05-14T05:37:48.549Z,2997.76
2023-05-14T05:38:48.737Z,2997.76
2023-05-14T05:39:48.901Z,2997.76
2023-05-14T05:40:49.094Z,2997.76
2023-05-14T05:41:49.271Z,2997.76
2023-05-14T05:42:49.448Z,2997.76
2023-05-14T05:43:49.605Z,2997.76
2023-05-14T05:44:49.798Z,2997.76
2023-05-14T05:45:49.974Z,2997.76
2023-05-14T05:46:50.169Z,2997.76
2023-05-14T05:47:50.748Z,2997.76
2023-05-14T05:48:51.214Z,2997.76
2023-05-14T05:49:51.383Z,2997.76
2023-05-14T05:50:51.542Z,2099.2
2023-05-14T05:51:51.746Z,2099.2
2023-05-14T05:52:51.908Z,2099.2
2023-05-14T05:53:52.096Z,2099.2
2023-05-14T05:54:52.252Z,2099.2
2023-05-14T05:55:52.409Z,2099.2
2023-05-14T05:56:52.582Z,2739.2
2023-05-14T05:57:52.811Z,2739.2
2023-05-14T05:58:52.988Z,2739.2
2023-05-14T05:59:53.161Z,3637.76
2023-05-14T06:00:53.310Z,3637.76
2023-05-14T06:01:53.505Z,3637.76
2023-05-14T06:02:53.868Z,3637.76
2023-05-14T06:03:54.198Z,3637.76
2023-05-14T06:04:54.456Z,3637.76
2023-05-14T06:05:54.675Z,3637.76
2023-05-14T06:06:54.860Z,3637.76
2023-05-14T06:07:55.022Z,3637.76
2023-05-14T06:08:55.172Z,3637.76
2023-05-14T06:09:55.360Z,3637.76
2023-05-14T06:10:55.536Z,3637.76
2023-05-14T06:11:55.703Z,3637.76
2023-05-14T06:12:55.881Z,2519.04
2023-05-14T06:13:56.045Z,2519.04
2023-05-14T06:14:56.208Z,2519.04
2023-05-14T06:15:56.361Z,2519.04
2023-05-14T06:16:56.591Z,2519.04
2023-05-14T06:17:57.023Z,2519.04
2023-05-14T06:18:57.425Z,2519.04
2023-05-14T06:19:57.699Z,1760
2023-05-14T06:20:57.896Z,1760
2023-05-14T06:21:58.050Z,1760
2023-05-14T06:22:58.215Z,1760
2023-05-14T06:23:58.371Z,1760
2023-05-14T06:24:58.533Z,1760
2023-05-14T06:25:58.709Z,1760
2023-05-14T06:26:58.908Z,1760
2023-05-14T06:27:59.081Z,1760
2023-05-14T06:28:59.263Z,1760
2023-05-14T06:29:59.435Z,1760
2023-05-14T06:30:59.594Z,1760
2023-05-14T06:31:59.770Z,1760
2023-05-14T06:33:00.169Z,1760
2023-05-14T06:34:00.554Z,1760
2023-05-14T06:35:00.755Z,1760
2023-05-14T06:36:00.980Z,1760
2023-05-14T06:37:01.188Z,1760
2023-05-14T06:38:01.404Z,1760
2023-05-14T06:39:01.583Z,1760
2023-05-14T06:40:01.765Z,1760
2023-05-14T06:41:01.979Z,1760
2023-05-14T06:42:02.172Z,1760
2023-05-14T06:43:02.366Z,1760
2023-05-14T06:44:02.525Z,1760
2023-05-14T06:45:02.674Z,2298.88
2023-05-14T06:46:02.891Z,2298.88
2023-05-14T06:47:03.045Z,2298.88
2023-05-14T06:48:03.285Z,2997.76
2023-05-14T06:49:03.746Z,2997.76
2023-05-14T06:50:04.043Z,2997.76
2023-05-14T06:51:04.294Z,2997.76
2023-05-14T06:52:04.497Z,2997.76
2023-05-14T06:53:04.661Z,2997.76
2023-05-14T06:54:04.812Z,2997.76
2023-05-14T06:55:04.987Z,2997.76
2023-05-14T06:56:05.154Z,2997.76
2023-05-14T06:57:05.320Z,2997.76
2023-05-14T06:58:05.467Z,3898.88
2023-05-14T06:59:05.651Z,3898.88
2023-05-14T07:00:05.794Z,3898.88
2023-05-14T07:01:05.982Z,3898.88
2023-05-14T07:02:06.289Z,3898.88
2023-05-14T07:03:06.502Z,3898.88
2023-05-14T07:04:07.014Z,3898.88
2023-05-14T07:05:07.470Z,3898.88
2023-05-14T07:06:07.661Z,3898.88
2023-05-14T07:07:07.873Z,3898.88
2023-05-14T07:08:08.045Z,3898.88
2023-05-14T07:09:08.196Z,3898.88
2023-05-14T07:10:08.368Z,3898.88
2023-05-14T07:11:08.546Z,3898.88
2023-05-14T07:12:08.720Z,3898.88
2023-05-14T07:13:08.890Z,3898.88
2023-05-14T07:14:09.061Z,3898.88
2023-05-14T07:15:09.218Z,3898.88
2023-05-14T07:16:09.404Z,3898.88
2023-05-14T07:17:09.577Z,3898.88
2023-05-14T07:18:09.823Z,3898.88
2023-05-14T07:19:10.211Z,3898.88
2023-05-14T07:20:10.718Z,3898.88
2023-05-14T07:21:10.901Z,3898.88
2023-05-14T07:22:11.088Z,3898.88
2023-05-14T07:23:11.265Z,3898.88
2023-05-14T07:24:11.442Z,3898.88
2023-05-14T07:25:11.621Z,3898.88
2023-05-14T07:26:11.789Z,3898.88
2023-05-14T07:27:11.952Z,3898.88
2023-05-14T07:28:12.146Z,3898.88
2023-05-14T07:29:12.305Z,3898.88
2023-05-14T07:30:12.465Z,3898.88
2023-05-14T07:31:12.637Z,3898.88
2023-05-14T07:32:14.775Z,3898.88
2023-05-14T07:33:16.021Z,3898.88
2023-05-14T07:34:16.190Z,3898.88
2023-05-14T07:35:16.359Z,5120
2023-05-14T07:36:16.514Z,5120
2023-05-14T07:37:16.693Z,5120
2023-05-14T07:38:16.865Z,5120
2023-05-14T07:39:17.043Z,5120
2023-05-14T07:40:17.228Z,5120
2023-05-14T07:41:17.393Z,5120
2023-05-14T07:42:28.256Z,5120
2023-05-14T07:43:37.748Z,6256.64
2023-05-14T07:44:37.912Z,6737.92
2023-05-14T07:45:38.091Z,6737.92
2023-05-14T07:46:38.257Z,6737.92
2023-05-14T07:47:38.499Z,6737.92
2023-05-14T07:48:39.035Z,8857.6
2023-05-14T07:49:39.420Z,8857.6
2023-05-14T07:50:39.562Z,8857.6
2023-05-14T07:51:39.750Z,8857.6
2023-05-14T07:52:39.935Z,11591.68
2023-05-14T07:53:40.114Z,11591.68
2023-05-14T07:54:40.267Z,11591.68
2023-05-14T07:55:40.420Z,11591.68
2023-05-14T07:56:40.577Z,11591.68
2023-05-14T07:57:40.756Z,11591.68
2023-05-14T07:58:40.917Z,11591.68
2023-05-14T07:59:41.077Z,11591.68
2023-05-14T08:00:41.242Z,11591.68
2023-05-14T08:01:41.422Z,11591.68
2023-05-14T08:02:41.784Z,11591.68
2023-05-14T08:03:42.178Z,11591.68
2023-05-14T08:04:42.680Z,11591.68
2023-05-14T08:05:42.828Z,11591.68
2023-05-14T08:06:43.014Z,11591.68
2023-05-14T08:07:43.223Z,11591.68
2023-05-14T08:08:43.409Z,11591.68
2023-05-14T08:09:43.571Z,11591.68
2023-05-14T08:10:43.842Z,11591.68
2023-05-14T08:11:44.147Z,11591.68
2023-05-14T08:12:44.308Z,11591.68
2023-05-14T08:13:44.486Z,8017.92
2023-05-14T08:14:44.667Z,8017.92
2023-05-14T08:15:44.848Z,8017.92
2023-05-14T08:16:45.037Z,8017.92
2023-05-14T08:17:45.412Z,8017.92
2023-05-14T08:18:45.950Z,8017.92
2023-05-14T08:19:46.200Z,8017.92
2023-05-14T08:20:46.364Z,8017.92
2023-05-14T08:21:46.530Z,8017.92
2023-05-14T08:22:46.697Z,8017.92
2023-05-14T08:23:46.869Z,8017.92
2023-05-14T08:24:47.040Z,10598.4
2023-05-14T08:25:47.211Z,10598.4
2023-05-14T08:26:47.373Z,10598.4
2023-05-14T08:27:47.559Z,10598.4
2023-05-14T08:28:47.726Z,10598.4
2023-05-14T08:29:47.889Z,10598.4
2023-05-14T08:30:48.078Z,10598.4
2023-05-14T08:31:48.316Z,10598.4
2023-05-14T08:32:48.502Z,7357.44
2023-05-14T08:33:48.775Z,7357.44
2023-05-14T08:34:48.938Z,7357.44
2023-05-14T08:35:49.135Z,7357.44
2023-05-14T08:36:49.304Z,7357.44
2023-05-14T08:37:49.470Z,7357.44
2023-05-14T08:38:49.645Z,7357.44
2023-05-14T08:39:49.804Z,7357.44
2023-05-14T08:40:49.964Z,7357.44
2023-05-14T08:41:50.135Z,7357.44
2023-05-14T08:42:50.327Z,7357.44
2023-05-14T08:43:50.484Z,7357.44
2023-05-14T08:44:50.631Z,7357.44
2023-05-14T08:45:50.806Z,7357.44
2023-05-14T08:46:50.973Z,7357.44
2023-05-14T08:47:51.439Z,7357.44
2023-05-14T08:48:52.043Z,7357.44
2023-05-14T08:49:52.416Z,7357.44
2023-05-14T08:50:52.588Z,7357.44
2023-05-14T08:51:52.754Z,9600
2023-05-14T08:52:52.930Z,9600
2023-05-14T08:53:53.100Z,12595.2
2023-05-14T08:54:53.288Z,12595.2
2023-05-14T08:55:53.441Z,12595.2
2023-05-14T08:56:53.898Z,12595.2
2023-05-14T08:57:54.071Z,12595.2
2023-05-14T08:58:54.236Z,12595.2
2023-05-14T08:59:54.384Z,12595.2
2023-05-14T09:00:54.564Z,12595.2
2023-05-14T09:01:54.759Z,12595.2
2023-05-14T09:02:55.063Z,16394.24
2023-05-14T09:03:55.370Z,16394.24
2023-05-14T09:04:55.792Z,16394.24
2023-05-14T09:05:56.445Z,16394.24
2023-05-14T09:07:00.409Z,17797.12
2023-05-14T09:08:00.569Z,17797.12
2023-05-14T09:09:00.734Z,17797.12
2023-05-14T09:10:00.888Z,17797.12
2023-05-14T09:11:01.051Z,17797.12
2023-05-14T09:12:01.236Z,17797.12
2023-05-14T09:13:01.411Z,17797.12
2023-05-14T09:14:01.559Z,17797.12
2023-05-14T09:15:01.765Z,17797.12
2023-05-14T09:16:01.940Z,17797.12
2023-05-14T09:17:02.296Z,11397.12
2023-05-14T09:18:02.472Z,11397.12
2023-05-14T09:19:02.814Z,11397.12
2023-05-14T09:20:03.156Z,11397.12
2023-05-14T09:21:03.346Z,11397.12
2023-05-14T09:22:03.501Z,11397.12
2023-05-14T09:23:03.672Z,11397.12
2023-05-14T09:24:03.873Z,11397.12
2023-05-14T09:25:04.070Z,11397.12
2023-05-14T09:26:04.259Z,11397.12
2023-05-14T09:27:04.440Z,11397.12
2023-05-14T09:28:04.611Z,15595.52
2023-05-14T09:29:04.775Z,15595.52
2023-05-14T09:30:04.952Z,15595.52
2023-05-14T09:31:05.131Z,15595.52
2023-05-14T09:32:05.660Z,15595.52
2023-05-14T09:33:06.218Z,15595.52
2023-05-14T09:34:06.498Z,15595.52
2023-05-14T09:35:06.651Z,15595.52
2023-05-14T09:36:06.845Z,15595.52
2023-05-14T09:37:07.053Z,15595.52
2023-05-14T09:38:07.252Z,15595.52
2023-05-14T09:39:07.436Z,15595.52
2023-05-14T09:40:07.615Z,15595.52
2023-05-14T09:41:07.804Z,15595.52
2023-05-14T09:42:07.992Z,15595.52
2023-05-14T09:43:08.150Z,15595.52
2023-05-14T09:44:08.346Z,15595.52
2023-05-14T09:45:08.510Z,15595.52
2023-05-14T09:46:08.726Z,15595.52
2023-05-14T09:47:08.908Z,15595.52
2023-05-14T09:48:09.245Z,15595.52
2023-05-14T09:49:09.668Z,15595.52
2023-05-14T09:50:09.824Z,15595.52
2023-05-14T09:51:10.031Z,15595.52
2023-05-14T09:52:10.191Z,15595.52
2023-05-14T09:53:10.398Z,15595.52
2023-05-14T09:54:10.609Z,15595.52
2023-05-14T09:55:10.803Z,15595.52
2023-05-14T09:56:11.000Z,15595.52
2023-05-14T09:57:11.168Z,15595.52
2023-05-14T09:58:11.334Z,15595.52
2023-05-14T09:59:11.503Z,15595.52
2023-05-14T10:00:11.665Z,15595.52
2023-05-14T10:01:11.847Z,15595.52
2023-05-14T10:02:12.245Z,15595.52
2023-05-14T10:03:12.405Z,15595.52
2023-05-14T10:04:12.779Z,15595.52
2023-05-14T10:05:13.143Z,15595.52
2023-05-14T10:06:13.660Z,10792.96
2023-05-14T10:07:13.838Z,10792.96
2023-05-14T10:08:14.007Z,10792.96
2023-05-14T10:09:14.282Z,10792.96
2023-05-14T10:10:14.520Z,10792.96
2023-05-14T10:11:14.752Z,10792.96
2023-05-14T10:12:14.906Z,10792.96
2023-05-14T10:13:15.082Z,10792.96
2023-05-14T10:14:15.269Z,10792.96
2023-05-14T10:15:15.433Z,10792.96
2023-05-14T10:16:15.573Z,10792.96
2023-05-14T10:17:15.841Z,10792.96
2023-05-14T10:18:16.412Z,10792.96
2023-05-14T10:19:16.790Z,10792.96
2023-05-14T10:20:17.257Z,10792.96
2023-05-14T10:21:17.469Z,10792.96
2023-05-14T10:22:17.627Z,10792.96
2023-05-14T10:23:17.783Z,10792.96
2023-05-14T10:24:17.940Z,10792.96
2023-05-14T10:25:18.145Z,10792.96
2023-05-14T10:26:18.307Z,10792.96
2023-05-14T10:27:18.465Z,10792.96
2023-05-14T10:28:18.625Z,10792.96
2023-05-14T10:29:18.803Z,10792.96
2023-05-14T10:30:19.074Z,10792.96
2023-05-14T10:31:19.376Z,10792.96
2023-05-14T10:32:19.652Z,10792.96
2023-05-14T10:33:19.815Z,10792.96
2023-05-14T10:34:19.976Z,10792.96
2023-05-14T10:35:20.135Z,10792.96
2023-05-14T10:36:20.335Z,10792.96
2023-05-14T10:37:20.570Z,10792.96
2023-05-14T10:38:20.763Z,10792.96
2023-05-14T10:39:20.944Z,10792.96
2023-05-14T10:40:21.165Z,10792.96
2023-05-14T10:41:21.668Z,14192.64
2023-05-14T10:42:21.857Z,14192.64
2023-05-14T10:43:22.049Z,14192.64
2023-05-14T10:44:22.204Z,14192.64
2023-05-14T10:45:22.364Z,14192.64
2023-05-14T10:46:22.566Z,14192.64
2023-05-14T10:47:22.969Z,18595.84
2023-05-14T10:48:23.189Z,18595.84
2023-05-14T10:49:32.453Z,18595.84
2023-05-14T10:50:44.249Z,17397.76
2023-05-14T10:51:44.561Z,17397.76
2023-05-14T10:52:44.847Z,17397.76
2023-05-14T10:53:45.009Z,17397.76
2023-05-14T10:54:45.180Z,17397.76
2023-05-14T10:55:45.340Z,17397.76
2023-05-14T10:56:45.514Z,17397.76
2023-05-14T10:57:45.684Z,17397.76
2023-05-14T10:58:45.878Z,17397.76
2023-05-14T10:59:46.069Z,17397.76
2023-05-14T11:00:46.229Z,17397.76
2023-05-14T11:01:46.407Z,17397.76
2023-05-14T11:02:46.703Z,17397.76
2023-05-14T11:03:47.326Z,17397.76
2023-05-14T11:04:47.613Z,17397.76
2023-05-14T11:05:47.762Z,17397.76
2023-05-14T11:06:47.929Z,17397.76
2023-05-14T11:07:48.207Z,17397.76
2023-05-14T11:08:48.381Z,17397.76
2023-05-14T11:09:48.536Z,17397.76
2023-05-14T11:10:48.698Z,17397.76
2023-05-14T11:11:48.857Z,17397.76
2023-05-14T11:12:49.024Z,17397.76
2023-05-14T11:13:49.201Z,17397.76
2023-05-14T11:14:49.472Z,17397.76
2023-05-14T11:15:49.671Z,17397.76
2023-05-14T11:16:49.937Z,17397.76
2023-05-14T11:17:50.413Z,17397.76
2023-05-14T11:18:51.011Z,17397.76
2023-05-14T11:19:51.365Z,24391.68
2023-05-14T11:20:51.554Z,24391.68
2023-05-14T11:21:51.699Z,24391.68
2023-05-14T11:22:51.945Z,24391.68
2023-05-14T11:23:52.138Z,33587.2
2023-05-14T11:24:52.298Z,33587.2
2023-05-14T11:25:52.565Z,45998.08
2023-05-14T11:26:52.969Z,45998.08
2023-05-14T11:27:53.123Z,61562.88
2023-05-14T11:28:53.310Z,61562.88
2023-05-14T11:29:53.473Z,61562.88
2023-05-14T11:30:53.635Z,40980.48
2023-05-14T11:31:53.832Z,40980.48
2023-05-14T11:32:54.325Z,27586.56
2023-05-14T11:33:54.678Z,18790.4
2023-05-14T11:34:54.856Z,12800
2023-05-14T11:35:55.025Z,12800
2023-05-14T11:36:55.282Z,8898.56
2023-05-14T11:37:55.459Z,6118.4
2023-05-14T11:38:55.625Z,6118.4
2023-05-14T11:39:55.835Z,6118.4
2023-05-14T11:40:56.005Z,6118.4
2023-05-14T11:41:56.223Z,6118.4
2023-05-14T11:42:56.389Z,6118.4
2023-05-14T11:43:56.559Z,6118.4
2023-05-14T11:44:56.731Z,6118.4
2023-05-14T11:45:57.029Z,6118.4
2023-05-14T11:46:57.404Z,6118.4
2023-05-14T11:47:57.674Z,6118.4
2023-05-14T11:48:58.177Z,6118.4
2023-05-14T11:49:58.318Z,6118.4
2023-05-14T11:50:58.497Z,6118.4
2023-05-14T11:51:58.657Z,6118.4
2023-05-14T11:52:58.821Z,6118.4
2023-05-14T11:53:59.011Z,6118.4
2023-05-14T11:54:59.180Z,6118.4
2023-05-14T11:55:59.354Z,6118.4
2023-05-14T11:56:59.524Z,6118.4
2023-05-14T11:57:59.694Z,6118.4
2023-05-14T11:58:59.847Z,6118.4
2023-05-14T12:00:00.029Z,6118.4
2023-05-14T12:01:00.388Z,6118.4
2023-05-14T12:02:00.538Z,6118.4
2023-05-14T12:03:00.733Z,6118.4
2023-05-14T12:04:01.182Z,6118.4
2023-05-14T12:05:01.825Z,6118.4
2023-05-14T12:06:02.085Z,6118.4
2023-05-14T12:07:02.364Z,6118.4
2023-05-14T12:08:02.562Z,6118.4
2023-05-14T12:09:02.726Z,6118.4
2023-05-14T12:10:02.910Z,6118.4
2023-05-14T12:11:03.108Z,6118.4
2023-05-14T12:12:03.325Z,6118.4
2023-05-14T12:13:03.508Z,6118.4
2023-05-14T12:14:03.696Z,6118.4
2023-05-14T12:15:03.855Z,6118.4
2023-05-14T12:16:04.040Z,6118.4
2023-05-14T12:17:04.355Z,6118.4
2023-05-14T12:18:10.999Z,6118.4
2023-05-14T12:19:25.391Z,3699.2
2023-05-14T12:20:25.791Z,2938.88
2023-05-14T12:21:26.476Z,1978.88
2023-05-14T12:22:26.614Z,1978.88
2023-05-14T12:23:26.790Z,1978.88
2023-05-14T12:24:27.072Z,1379.84
2023-05-14T12:25:27.242Z,1379.84
2023-05-14T12:26:27.418Z,1379.84
2023-05-14T12:27:27.589Z,1379.84
2023-05-14T12:28:27.826Z,1379.84
2023-05-14T12:29:27.980Z,1379.84
2023-05-14T12:30:28.217Z,1379.84
2023-05-14T12:31:28.611Z,1379.84
2023-05-14T12:32:28.913Z,1379.84
2023-05-14T12:33:29.194Z,1379.84
2023-05-14T12:34:29.354Z,1379.84
2023-05-14T12:35:29.559Z,1379.84
2023-05-14T12:36:29.733Z,1379.84
2023-05-14T12:37:31.203Z,1379.84
2023-05-14T12:38:31.519Z,1379.84
2023-05-14T12:39:31.695Z,1379.84
2023-05-14T12:40:31.848Z,1379.84
2023-05-14T12:41:32.011Z,1379.84
2023-05-14T12:42:32.330Z,1799.68
2023-05-14T12:43:32.477Z,1799.68
2023-05-14T12:44:32.641Z,1799.68
2023-05-14T12:45:32.808Z,1799.68
2023-05-14T12:46:33.070Z,1799.68
2023-05-14T12:47:33.393Z,1799.68
2023-05-14T12:48:33.622Z,1799.68
2023-05-14T12:49:33.774Z,2339.84
2023-05-14T12:50:33.925Z,2339.84
2023-05-14T12:51:34.089Z,2339.84
2023-05-14T12:52:38.238Z,2339.84
2023-05-14T12:53:40.399Z,3097.6
2023-05-14T12:54:42.312Z,3097.6
2023-05-14T12:55:43.152Z,3097.6